Kezdőlap
METAR-TAF:

METAR-TAF

Repülőterek :

Farmington Regional Airport

Farmington, Missouri, Amerikai Egyesült Államok

földrajzi szélesség: 37-46N, földrajzi hosszúság: 090-26W, magasság: 288 m

Jelenlegi meteorológiai megfigyelések

A jelentés 1 órával és 9 perccel ezelõtt készült, 02:56 UTC
Északi szél 4 kt
Hőmérséklet 25°C
Páratartalom 57%
Légköri nyomás 1017 hPa
Látótávolság: 16.1 km
Derült ég

METAR: KFAM 150256Z AUTO 36004KT 10SM CLR 25/16 A3003 RMK AO2 SLP167 T02500156 53009

Idő: 23:05 (04:05 UTC)


TAF: hiányzik

Meteorológiai megfigyelések és előrejelzések több, mint 4000 repülőtéren (METAR és TAF jelentéseket).

A térképen piros és sárga pontok jelzik az elérhető meteorológiai állomásokat.

Mozgassa az egeret a pont fölött, hogy megjelenjen az állomás neve.

Azután kattintson az időjárási megfigyelések és előrejelzések megtekintéséhez.

A térkép megváltoztatása: kattintson a fekete keresztel jelölt zöld gombra ráközelítéshez, a vonallal jelölt zöld gombra távolításhoz, vagy a zöld nyilakra a szomszédos térképek eléréséhez.


METAR-TAF: